Time;durP1;ratioP1;P1;durP2;ratioP2;P2;SDS_P1;SDS_P2;PMS_P1;PMS_P2;Temp;Humidity;BMP_temperature;BMP_pressure;BME280_temperature;BME280_humidity;BME280_pressure;Samples;Min_cycle;Max_cycle;Signal;HPM_P1;HPM_P2
2022/10/27 00:00:31;;;;;;;7.22;3.40;;;;;;;14.65;89.37;101989.03;5039021;28;20082;-54
2022/10/27 00:02:56;;;;;;;7.50;3.75;;;;;;;14.61;89.95;101982.13;5051359;28;20036;-53
2022/10/27 00:05:21;;;;;;;8.20;3.58;;;;;;;14.57;89.44;101989.50;5043912;28;20098;-55
2022/10/27 00:07:48;;;;;;;5.40;3.80;;;;;;;14.53;89.96;101985.31;5047337;28;20033;-54
2022/10/27 00:10:13;;;;;;;6.63;4.10;;;;;;;14.50;89.86;101988.13;5045518;28;20540;-53
2022/10/27 00:12:38;;;;;;;7.00;4.13;;;;;;;14.44;89.45;101997.41;5050152;28;20053;-54
2022/10/27 00:15:04;;;;;;;7.30;3.65;;;;;;;14.37;90.43;101995.19;5057830;28;20074;-54
2022/10/27 00:17:30;;;;;;;8.68;3.58;;;;;;;14.35;90.64;101991.72;5069961;28;20103;-53
2022/10/27 00:19:55;;;;;;;7.50;3.75;;;;;;;14.40;89.92;101998.53;5044140;28;20025;-54
2022/10/27 00:22:21;;;;;;;9.60;3.95;;;;;;;14.25;90.13;101992.28;5034284;28;20025;-53
2022/10/27 00:24:47;;;;;;;9.15;3.92;;;;;;;14.28;91.57;102000.13;5037560;28;20057;-54
2022/10/27 00:27:15;;;;;;;6.97;3.65;;;;;;;14.28;91.22;101999.28;5041981;28;20029;-55
2022/10/27 00:29:40;;;;;;;7.40;3.42;;;;;;;14.26;91.16;102002.03;5043285;28;20396;-54
2022/10/27 00:32:05;;;;;;;5.50;3.13;;;;;;;14.22;91.23;101994.28;5037604;28;20029;-53
2022/10/27 00:34:33;;;;;;;9.63;3.42;;;;;;;14.30;91.19;102010.75;5043477;28;20044;-54
2022/10/27 00:37:01;;;;;;;14.52;4.10;;;;;;;14.27;92.31;102006.44;5032043;28;20036;-54
2022/10/27 00:39:29;;;;;;;9.15;3.90;;;;;;;14.26;91.06;102002.03;5049753;28;20113;-54
2022/10/27 00:41:55;;;;;;;6.30;3.38;;;;;;;14.29;92.02;101998.31;5047841;28;20496;-54
2022/10/27 00:44:35;;;;;;;7.55;3.65;;;;;;;14.22;92.46;102013.03;5035933;28;20041;-52
2022/10/27 00:47:08;;;;;;;10.70;3.40;;;;;;;14.36;93.95;102010.38;5033676;28;20094;-54
2022/10/27 00:49:49;;;;;;;10.15;3.78;;;;;;;14.26;93.87;102004.72;5054957;28;20037;-53
2022/10/27 00:52:22;;;;;;;7.22;3.83;;;;;;;14.23;94.66;102009.38;5042606;28;20025;-54
2022/10/27 00:54:48;;;;;;;10.57;4.07;;;;;;;14.35;94.69;102018.50;5038331;28;20059;-53
2022/10/27 00:57:14;;;;;;;8.60;3.88;;;;;;;14.36;94.73;102020.25;5049691;28;20029;-54
2022/10/27 00:59:40;;;;;;;10.88;3.75;;;;;;;14.39;94.82;102015.56;5030036;28;20025;-54
2022/10/27 01:02:09;;;;;;;5.78;3.50;;;;;;;14.42;94.21;102018.03;5034432;28;20029;-54
2022/10/27 01:04:40;;;;;;;;;;;;;;;14.53;92.84;102022.78;5029674;28;20061;-54
2022/10/27 01:07:06;;;;;;;8.15;3.63;;;;;;;14.46;92.97;102018.72;5046768;28;19917;-54
2022/10/27 01:09:31;;;;;;;11.38;3.83;;;;;;;14.47;94.00;102021.31;5030955;28;20072;-54
2022/10/27 01:11:57;;;;;;;7.05;3.47;;;;;;;14.52;93.59;102023.72;5017240;28;20041;-53
2022/10/27 01:14:23;;;;;;;10.95;4.22;;;;;;;14.45;93.99;102008.97;5041104;28;20030;-54
2022/10/27 01:17:10;;;;;;;7.97;3.42;;;;;;;14.53;93.52;102020.97;5030437;28;20022;-54
2022/10/27 01:19:56;;;;;;;5.80;3.70;;;;;;;14.51;93.50;102027.34;5036233;28;20028;-54
2022/10/27 01:22:37;;;;;;;9.93;3.92;;;;;;;14.53;94.11;102029.00;5030397;28;20052;-54
2022/10/27 01:25:09;;;;;;;10.20;4.10;;;;;;;14.53;93.94;102031.69;5041626;28;20041;-54
2022/10/27 01:27:52;;;;;;;7.35;3.30;;;;;;;14.54;94.07;102019.16;5048560;28;20033;-54
2022/10/27 01:30:21;;;;;;;6.70;3.78;;;;;;;14.54;94.09;102036.06;5046866;28;20274;-54
2022/10/27 01:33:04;;;;;;;8.23;3.53;;;;;;;14.59;94.22;102016.16;5046652;28;20037;-54
2022/10/27 01:35:48;;;;;;;13.50;4.13;;;;;;;14.60;94.03;102028.63;5034194;28;20037;-54
2022/10/27 01:38:19;;;;;;;9.85;3.67;;;;;;;14.56;94.70;102019.94;5046708;28;20557;-54
2022/10/27 01:40:51;;;;;;;12.82;4.15;;;;;;;14.58;94.31;102031.38;5053579;28;20096;-54
2022/10/27 01:43:23;;;;;;;11.15;3.95;;;;;;;14.56;94.31;102024.38;5053474;28;20025;-54
2022/10/27 01:45:53;;;;;;;9.77;3.90;;;;;;;14.58;94.23;102031.38;5041835;28;20029;-54
2022/10/27 01:48:19;;;;;;;11.77;4.28;;;;;;;14.53;94.08;102026.31;5033674;28;20025;-54
2022/10/27 01:50:45;;;;;;;7.45;3.50;;;;;;;14.59;94.05;102032.22;5033990;28;20014;-54
2022/10/27 01:53:10;;;;;;;5.95;3.63;;;;;;;14.58;94.26;102025.16;5045093;28;20040;-54
2022/10/27 01:55:48;;;;;;;8.90;3.78;;;;;;;14.59;93.86;102019.72;5051418;28;20032;-54
2022/10/27 01:58:24;;;;;;;6.53;3.75;;;;;;;14.54;93.95;102021.81;5052946;28;20033;-54
2022/10/27 02:00:55;;;;;;;12.88;3.60;;;;;;;14.53;94.43;102028.16;5037365;28;20104;-54
2022/10/27 02:03:29;;;;;;;8.05;3.53;;;;;;;14.51;93.81;102030.00;5037418;28;20045;-54
2022/10/27 02:05:58;;;;;;;8.00;3.80;;;;;;;14.37;93.76;102020.13;5038116;28;20369;-53
2022/10/27 02:08:34;;;;;;;5.53;3.53;;;;;;;14.40;93.73;102013.72;5039640;28;20132;-54
2022/10/27 02:11:05;;;;;;;5.80;3.45;;;;;;;14.38;93.71;102012.94;5053006;28;20025;-54
2022/10/27 02:13:36;;;;;;;10.05;3.15;;;;;;;14.32;93.65;102020.44;5051445;28;20045;-54
2022/10/27 02:16:10;;;;;;;10.02;4.15;;;;;;;14.34;93.96;102023.00;5034252;28;20048;-54
2022/10/27 02:19:00;;;;;;;8.88;3.90;;;;;;;14.26;93.84;102009.19;5037206;28;20083;-54
2022/10/27 02:21:29;;;;;;;6.28;3.65;;;;;;;14.25;93.94;102015.53;5031423;28;20128;-54
2022/10/27 02:23:57;;;;;;;9.18;4.13;;;;;;;14.22;93.82;102011.19;5037037;28;20039;-54
2022/10/27 02:26:28;;;;;;;8.20;3.63;;;;;;;14.20;93.74;102005.06;5032740;28;20075;-54
2022/10/27 02:28:59;;;;;;;6.78;3.22;;;;;;;14.09;93.57;102002.19;5037972;28;20423;-54
2022/10/27 02:31:30;;;;;;;6.30;3.67;;;;;;;14.08;93.90;102001.31;5037206;28;20384;-54
2022/10/27 02:33:57;;;;;;;5.72;3.92;;;;;;;14.01;93.93;101999.13;5035223;28;20025;-53
2022/10/27 02:36:22;;;;;;;8.68;3.70;;;;;;;13.97;93.70;102002.91;5047885;28;20079;-54
2022/10/27 02:38:48;;;;;;;8.95;3.70;;;;;;;13.95;94.26;102004.81;5032855;28;20033;-53
2022/10/27 02:41:13;;;;;;;8.15;3.72;;;;;;;13.94;93.97;102006.66;5043796;28;20067;-54
2022/10/27 02:43:39;;;;;;;8.45;3.63;;;;;;;13.89;93.77;102008.72;5035221;28;20028;-55
2022/10/27 02:46:05;;;;;;;9.88;4.18;;;;;;;13.96;94.58;102006.53;5034147;28;20044;-54
2022/10/27 02:48:30;;;;;;;11.27;4.65;;;;;;;13.97;95.50;102009.13;5031149;28;20044;-54
2022/10/27 02:50:55;;;;;;;6.45;3.83;;;;;;;13.81;94.05;102002.94;5051278;28;20032;-54
2022/10/27 02:53:21;;;;;;;8.65;4.63;;;;;;;13.82;95.40;102002.00;5045863;28;20092;-54
2022/10/27 02:55:46;;;;;;;9.45;4.10;;;;;;;13.83;94.78;101995.72;5052384;28;20484;-54
2022/10/27 02:58:11;;;;;;;9.90;4.18;;;;;;;13.80;95.60;101999.41;5051501;28;20124;-54
2022/10/27 03:00:37;;;;;;;11.15;4.57;;;;;;;13.86;95.70;101996.38;5050774;28;20392;-54
2022/10/27 03:03:03;;;;;;;11.73;3.92;;;;;;;13.78;95.29;101998.63;5046490;28;20025;-54
2022/10/27 03:05:28;;;;;;;9.55;4.65;;;;;;;13.84;95.95;101986.72;5033068;28;20248;-54
2022/10/27 03:07:53;;;;;;;13.45;4.97;;;;;;;13.78;94.98;101987.09;5031160;28;20057;-54
2022/10/27 03:10:19;;;;;;;10.32;3.85;;;;;;;13.85;96.09;101978.63;5036053;28;20372;-53
2022/10/27 03:12:49;;;;;;;8.82;4.22;;;;;;;13.73;95.16;101975.78;5048241;28;20068;-54
2022/10/27 03:15:15;;;;;;;14.30;3.95;;;;;;;13.63;94.71;101956.75;5050310;28;20033;-54
2022/10/27 03:17:47;;;;;;;6.57;4.00;;;;;;;13.65;94.55;101960.22;5049847;28;20107;-54
2022/10/27 03:20:13;;;;;;;6.75;3.97;;;;;;;13.73;94.74;101965.09;5037716;28;20033;-54
2022/10/27 03:22:40;;;;;;;7.13;4.22;;;;;;;13.76;94.65;101971.13;5031996;28;20025;-55
2022/10/27 03:25:06;;;;;;;8.60;4.25;;;;;;;13.76;96.20;101959.56;5032278;28;20456;-54
2022/10/27 03:27:31;;;;;;;11.27;4.07;;;;;;;13.71;95.49;101953.66;5039896;28;20568;-54
2022/10/27 03:29:57;;;;;;;6.65;3.65;;;;;;;13.67;94.72;101957.44;5039922;28;20068;-54
2022/10/27 03:32:23;;;;;;;7.57;3.72;;;;;;;13.68;95.13;101957.34;5040131;28;20114;-54
2022/10/27 03:34:48;;;;;;;7.65;4.10;;;;;;;13.62;95.02;101963.06;5032298;28;20159;-54
2022/10/27 03:37:16;;;;;;;8.10;3.95;;;;;;;13.60;95.03;101959.59;5037721;28;20036;-54
2022/10/27 03:39:41;;;;;;;10.30;4.35;;;;;;;13.60;95.04;101959.59;5039860;28;20025;-55
2022/10/27 03:42:09;;;;;;;9.23;4.20;;;;;;;13.51;95.13;101961.00;5042684;28;20056;-53
2022/10/27 03:44:37;;;;;;;7.90;3.88;;;;;;;13.49;94.82;101957.53;5035041;28;20037;-54
2022/10/27 03:47:02;;;;;;;10.63;4.40;;;;;;;13.52;95.01;101962.72;5047458;28;20058;-54
2022/10/27 03:49:28;;;;;;;6.55;3.67;;;;;;;13.39;94.90;101957.22;5045222;28;20251;-54
2022/10/27 03:51:54;;;;;;;5.72;3.90;;;;;;;13.39;94.75;101949.19;5046823;28;20064;-54
2022/10/27 03:54:20;;;;;;;6.13;3.78;;;;;;;13.44;95.07;101956.09;5050092;28;20036;-54
2022/10/27 03:56:45;;;;;;;9.90;4.07;;;;;;;13.42;95.02;101947.31;5049479;28;20344;-52
2022/10/27 03:59:10;;;;;;;6.68;3.70;;;;;;;13.38;94.79;101950.16;5044436;28;20060;-54
2022/10/27 04:01:36;;;;;;;5.97;3.50;;;;;;;13.35;94.91;101942.31;5031081;28;20041;-54
2022/10/27 04:04:03;;;;;;;5.45;3.67;;;;;;;13.32;95.58;101954.97;5049986;28;20491;-54
2022/10/27 04:06:29;;;;;;;9.18;3.55;;;;;;;13.32;94.82;101954.97;5046819;28;20037;-54
2022/10/27 04:08:55;;;;;;;6.78;3.90;;;;;;;13.43;95.29;101957.91;5031777;28;20389;-53
2022/10/27 04:11:20;;;;;;;7.65;4.13;;;;;;;13.24;94.14;101955.38;5031923;28;20040;-54
2022/10/27 04:13:46;;;;;;;6.85;3.53;;;;;;;13.24;94.82;101960.72;5045738;28;20374;-54
2022/10/27 04:16:14;;;;;;;5.90;3.58;;;;;;;13.17;95.25;101957.53;5031897;28;20029;-54
2022/10/27 04:18:39;;;;;;;9.48;4.13;;;;;;;13.28;95.78;101970.31;5024695;28;20075;-54
2022/10/27 04:21:05;;;;;;;7.55;3.60;;;;;;;13.28;95.41;101964.13;5032877;28;20104;-54
2022/10/27 04:23:31;;;;;;;10.07;3.92;;;;;;;13.24;96.01;101973.25;5034101;28;20036;-54
2022/10/27 04:25:57;;;;;;;8.43;3.92;;;;;;;13.16;96.17;101971.84;5040940;28;20021;-54
2022/10/27 04:28:23;;;;;;;7.63;3.70;;;;;;;13.15;95.94;101977.28;5049944;28;20025;-54
2022/10/27 04:30:49;;;;;;;10.13;3.88;;;;;;;13.17;95.64;101972.69;5018008;28;20025;-54
2022/10/27 04:33:15;;;;;;;5.22;3.38;;;;;;;13.08;95.22;101966.06;5037063;28;20063;-54
2022/10/27 04:35:41;;;;;;;5.70;3.25;;;;;;;13.08;94.64;101971.41;5046637;28;20029;-54
2022/10/27 04:38:06;;;;;;;6.53;3.42;;;;;;;13.09;94.90;101965.13;5035719;28;20071;-53
2022/10/27 04:40:31;;;;;;;9.43;3.75;;;;;;;13.01;94.41;101970.03;5049455;28;20476;-54
2022/10/27 04:42:57;;;;;;;6.25;3.63;;;;;;;13.05;95.11;101973.38;5034595;28;20021;-54
2022/10/27 04:45:22;;;;;;;9.30;3.90;;;;;;;13.12;95.15;101977.47;5029998;28;20392;-54
2022/10/27 04:47:48;;;;;;;4.72;3.60;;;;;;;13.12;95.09;101980.97;5033473;28;20037;-54
2022/10/27 04:50:14;;;;;;;6.20;3.50;;;;;;;13.10;94.87;101977.53;5040477;28;20029;-54
2022/10/27 04:52:40;;;;;;;11.02;4.00;;;;;;;13.03;94.92;101983.28;5045043;28;20029;-54
2022/10/27 04:55:06;;;;;;;8.55;4.25;;;;;;;13.04;95.65;101977.00;5044564;28;20100;-54
2022/10/27 04:57:31;;;;;;;10.90;4.57;;;;;;;13.10;96.11;101976.66;5045277;28;20035;-54
2022/10/27 04:59:57;;;;;;;9.45;4.30;;;;;;;13.12;95.31;101975.63;5048522;28;20025;-54
2022/10/27 05:02:24;;;;;;;11.52;4.95;;;;;;;13.20;95.36;101983.22;5048392;28;20092;-54
2022/10/27 05:04:53;;;;;;;8.48;4.43;;;;;;;13.16;95.50;101973.66;5039295;28;20033;-53
2022/10/27 05:07:18;;;;;;;7.10;4.38;;;;;;;13.16;95.71;101973.66;5034215;28;20427;-54
2022/10/27 05:09:43;;;;;;;10.70;4.70;;;;;;;13.25;95.80;101975.84;5023597;28;20088;-54
2022/10/27 05:12:09;;;;;;;9.18;4.97;;;;;;;13.27;96.10;101975.78;5031291;28;20037;-54
2022/10/27 05:14:35;;;;;;;11.27;4.68;;;;;;;13.30;95.86;101972.91;5047014;28;20492;-54
2022/10/27 05:17:00;;;;;;;10.80;4.97;;;;;;;13.29;95.95;101974.72;5044385;28;20121;-54
2022/10/27 05:19:26;;;;;;;8.57;4.70;;;;;;;13.32;95.83;101973.69;5038698;28;20061;-54
2022/10/27 05:21:52;;;;;;;7.20;4.90;;;;;;;13.31;95.57;101974.63;5034466;28;20365;-53
2022/10/27 05:24:17;;;;;;;13.30;5.00;;;;;;;13.35;95.80;101979.72;5034392;28;20104;-54
2022/10/27 05:26:42;;;;;;;6.93;4.38;;;;;;;13.31;95.95;101972.81;5042558;28;20136;-53
2022/10/27 05:29:08;;;;;;;14.25;5.20;;;;;;;13.29;96.15;101974.72;5051749;28;20028;-54
2022/10/27 05:31:33;;;;;;;8.27;4.38;;;;;;;13.33;96.02;101967.41;5038053;28;20533;-54
2022/10/27 05:33:59;;;;;;;7.25;4.20;;;;;;;13.33;96.10;101972.75;5034110;28;20021;-54
2022/10/27 05:36:25;;;;;;;7.35;4.18;;;;;;;13.33;96.08;101970.94;5019643;28;20091;-54
2022/10/27 05:38:51;;;;;;;11.07;4.60;;;;;;;13.32;96.08;101961.16;5053128;28;20039;-54
2022/10/27 05:41:18;;;;;;;7.90;4.72;;;;;;;13.31;96.16;101967.47;5051747;28;20115;-54
2022/10/27 05:43:46;;;;;;;9.15;4.90;;;;;;;13.26;96.53;101961.53;5044570;28;20057;-54
2022/10/27 05:46:12;;;;;;;9.73;4.53;;;;;;;13.31;95.80;101961.28;5038763;28;20033;-54
2022/10/27 05:48:37;;;;;;;11.82;4.40;;;;;;;13.28;96.02;101953.44;5045850;28;20510;-54
2022/10/27 05:51:02;;;;;;;8.80;4.70;;;;;;;13.28;95.91;101948.09;5050380;28;20094;-54
2022/10/27 05:53:28;;;;;;;8.35;4.32;;;;;;;13.36;95.49;101961.88;5038025;28;20057;-54
2022/10/27 05:55:54;;;;;;;8.52;4.38;;;;;;;13.36;95.30;101956.53;5032391;28;20037;-54
2022/10/27 05:58:20;;;;;;;8.05;4.00;;;;;;;13.39;95.40;101954.53;5052721;28;20037;-54
2022/10/27 06:00:45;;;;;;;7.43;4.32;;;;;;;13.34;95.40;101953.09;5045662;28;20140;-54
2022/10/27 06:03:22;;;;;;;10.57;4.50;;;;;;;13.35;95.42;101952.13;5045825;28;20207;-54
2022/10/27 06:05:49;;;;;;;9.82;4.63;;;;;;;13.38;95.26;101958.19;5050573;28;20025;-54
2022/10/27 06:08:15;;;;;;;6.53;4.53;;;;;;;13.43;95.07;101955.22;5043181;28;20033;-54
2022/10/27 06:10:41;;;;;;;10.63;4.72;;;;;;;13.47;95.21;101956.78;5032189;28;20033;-54
2022/10/27 06:13:09;;;;;;;7.35;4.32;;;;;;;13.36;95.30;101951.19;5033408;28;20061;-54
2022/10/27 06:15:35;;;;;;;8.38;4.40;;;;;;;13.34;95.11;101945.91;5033476;28;20056;-53
2022/10/27 06:18:01;;;;;;;11.25;4.75;;;;;;;13.37;95.13;101952.91;5044975;28;20104;-53
2022/10/27 06:20:27;;;;;;;6.47;3.95;;;;;;;13.39;95.01;101957.22;5048722;28;20028;-54
2022/10/27 06:22:52;;;;;;;6.82;4.10;;;;;;;13.42;94.31;101955.34;5037426;28;20078;-53
2022/10/27 06:25:18;;;;;;;9.55;4.55;;;;;;;13.39;94.62;101945.69;5015625;28;20037;-53
2022/10/27 06:27:43;;;;;;;10.88;4.40;;;;;;;13.48;93.52;101950.47;5034554;28;20034;-54
2022/10/27 06:30:11;;;;;;;9.65;4.28;;;;;;;13.53;93.18;101947.53;5033260;28;20110;-54
2022/10/27 06:32:40;;;;;;;7.82;4.07;;;;;;;13.52;92.68;101938.66;5025085;28;20504;-54
2022/10/27 06:35:09;;;;;;;6.38;4.00;;;;;;;13.53;92.80;101940.41;5034573;28;20029;-53
2022/10/27 06:37:39;;;;;;;7.57;4.05;;;;;;;13.49;92.94;101944.19;5032717;28;20143;-54
2022/10/27 06:40:08;;;;;;;9.43;4.00;;;;;;;13.31;93.41;101931.88;5036226;28;20029;-54
2022/10/27 06:42:38;;;;;;;4.20;3.70;;;;;;;13.28;93.06;101929.38;5033399;28;20036;-54
2022/10/27 06:45:04;;;;;;;9.23;3.88;;;;;;;13.27;92.66;101933.88;5022351;28;20025;-54
2022/10/27 06:47:30;;;;;;;6.82;3.40;;;;;;;13.30;92.58;101933.69;5033195;28;20079;-53
2022/10/27 06:49:56;;;;;;;7.43;3.58;;;;;;;13.41;91.66;101938.41;5031202;28;20477;-54
2022/10/27 06:52:24;;;;;;;10.23;3.47;;;;;;;13.49;91.09;101925.47;5032277;28;20029;-54
2022/10/27 06:54:49;;;;;;;8.57;3.90;;;;;;;13.54;90.72;101922.53;5032056;28;20039;-54
2022/10/27 06:57:15;;;;;;;8.05;3.33;;;;;;;13.44;91.37;101916.00;5031664;28;20030;-54
2022/10/27 06:59:40;;;;;;;8.02;3.70;;;;;;;13.57;90.87;101931.25;5032264;28;20057;-54
2022/10/27 07:02:06;;;;;;;5.32;3.75;;;;;;;13.51;91.19;101931.59;5032863;28;20037;-54
2022/10/27 07:04:33;;;;;;;7.72;4.25;;;;;;;13.57;90.82;101925.03;5032633;28;20035;-54
2022/10/27 07:06:59;;;;;;;6.80;4.10;;;;;;;13.50;91.22;101919.19;5037754;28;20476;-54
2022/10/27 07:09:24;;;;;;;11.93;3.83;;;;;;;13.52;90.92;101924.44;5050656;28;20091;-54
2022/10/27 07:11:50;;;;;;;7.63;3.88;;;;;;;13.55;91.02;101937.63;5051003;28;20523;-54
2022/10/27 07:14:15;;;;;;;5.85;3.60;;;;;;;13.55;91.27;101938.47;5051020;28;20033;-54
2022/10/27 07:16:42;;;;;;;6.43;4.43;;;;;;;13.56;91.59;101936.66;5049893;28;20495;-54
2022/10/27 07:19:08;;;;;;;4.93;3.88;;;;;;;13.54;90.84;101942.13;5032538;28;20030;-54
2022/10/27 07:21:33;;;;;;;7.45;4.30;;;;;;;13.58;90.82;101938.28;4999479;28;20018;-54
2022/10/27 07:24:01;;;;;;;7.68;4.50;;;;;;;13.63;90.06;101938.91;5032485;28;20444;-54
2022/10/27 07:26:29;;;;;;;8.52;4.00;;;;;;;13.64;90.56;101942.44;5031911;28;20029;-54
2022/10/27 07:28:54;;;;;;;7.63;4.35;;;;;;;13.63;90.18;101930.88;5030871;28;20037;-54
2022/10/27 07:31:20;;;;;;;5.72;4.10;;;;;;;13.66;90.54;101932.50;5030935;28;20400;-54
2022/10/27 07:33:45;;;;;;;10.27;4.70;;;;;;;13.74;89.61;101932.06;5033247;28;20037;-54
2022/10/27 07:36:11;;;;;;;9.20;4.45;;;;;;;13.79;88.95;101930.81;5032256;28;20043;-54
2022/10/27 07:38:37;;;;;;;8.32;4.57;;;;;;;13.84;88.99;101931.41;5030949;28;20044;-53
2022/10/27 07:41:04;;;;;;;8.75;3.72;;;;;;;13.92;87.82;101927.44;5031686;28;20477;-54
2022/10/27 07:43:29;;;;;;;7.38;4.03;;;;;;;13.97;87.55;101936.03;5031980;28;20033;-54
2022/10/27 07:45:54;;;;;;;10.68;3.95;;;;;;;14.03;87.78;101941.91;5031985;28;20037;-54
2022/10/27 07:48:20;;;;;;;6.82;3.80;;;;;;;14.13;86.57;101936.00;5031787;28;20038;-54
2022/10/27 07:50:46;;;;;;;9.02;3.67;;;;;;;14.21;85.62;101955.13;5031455;28;20037;-53
2022/10/27 07:53:14;;;;;;;8.25;3.72;;;;;;;14.27;85.37;101949.41;5031844;28;20037;-54
2022/10/27 07:55:40;;;;;;;6.50;3.45;;;;;;;14.26;84.93;101948.50;5029841;28;20025;-55
2022/10/27 07:58:06;;;;;;;6.90;3.10;;;;;;;14.38;84.51;101954.06;5041164;28;20467;-54
2022/10/27 08:00:34;;;;;;;4.95;3.25;;;;;;;14.42;84.05;101950.28;5049604;28;20040;-54
2022/10/27 08:03:01;;;;;;;5.63;3.42;;;;;;;14.47;84.34;101941.00;5051379;28;20017;-54
2022/10/27 08:05:33;;;;;;;6.50;3.35;;;;;;;14.45;85.46;101942.03;5051103;28;20124;-54
2022/10/27 08:08:00;;;;;;;5.63;2.88;;;;;;;14.48;83.86;101936.50;5051432;28;20162;-54
2022/10/27 08:10:26;;;;;;;5.55;3.30;;;;;;;14.51;83.15;101937.19;5032424;28;20491;-54
2022/10/27 08:12:51;;;;;;;5.18;3.50;;;;;;;14.51;82.77;101931.84;5049874;28;20045;-54
2022/10/27 08:15:17;;;;;;;12.35;3.30;;;;;;;14.59;82.99;101939.41;5050080;28;20028;-54
2022/10/27 08:17:42;;;;;;;5.93;3.47;;;;;;;14.60;83.56;101924.19;5051692;28;20037;-54
2022/10/27 08:20:10;;;;;;;7.07;3.22;;;;;;;14.72;81.34;101918.91;5033640;28;20364;-57
2022/10/27 08:22:35;;;;;;;5.00;3.40;;;;;;;14.76;81.93;101916.91;5049894;28;20518;-54
2022/10/27 08:25:03;;;;;;;5.10;2.60;;;;;;;14.81;80.85;101914.81;5049853;28;20053;-54
2022/10/27 08:27:31;;;;;;;7.47;3.47;;;;;;;14.91;82.08;101923.09;5051211;28;20041;-54
2022/10/27 08:29:57;;;;;;;7.72;3.05;;;;;;;14.99;82.36;101920.78;5051116;28;20159;-54
2022/10/27 08:32:22;;;;;;;5.47;3.20;;;;;;;15.05;81.76;101922.22;5026691;28;20128;-54
2022/10/27 08:34:48;;;;;;;6.88;2.47;;;;;;;15.18;79.79;101925.84;5013512;28;20029;-54
2022/10/27 08:37:15;;;;;;;5.57;2.65;;;;;;;15.31;78.70;101934.78;5031660;28;20048;-55
2022/10/27 08:39:40;;;;;;;3.40;2.20;;;;;;;15.49;76.92;101924.66;5033281;28;20062;-53
2022/10/27 08:42:12;;;;;;;8.02;2.22;;;;;;;15.60;77.64;101927.50;5048080;28;20399;-54
2022/10/27 08:44:47;;;;;;;5.53;2.63;;;;;;;15.65;76.39;101920.00;5030102;28;20108;-54
2022/10/27 08:47:21;;;;;;;4.88;2.17;;;;;;;15.79;75.52;101929.81;5033630;28;20025;-54
2022/10/27 08:49:50;;;;;;;3.83;2.20;;;;;;;15.86;74.98;101920.41;5054882;28;20029;-54
2022/10/27 08:52:35;;;;;;;5.55;1.80;;;;;;;15.95;74.83;101920.75;5054445;28;20024;-54
2022/10/27 08:55:12;;;;;;;4.72;1.92;;;;;;;16.01;74.98;101913.13;5034600;28;20026;-54
2022/10/27 08:57:42;;;;;;;3.50;2.10;;;;;;;16.15;72.58;101912.19;5035200;28;20112;-54
2022/10/27 09:00:12;;;;;;;4.20;2.05;;;;;;;16.30;71.62;101907.56;5033799;28;20018;-54
2022/10/27 09:02:40;;;;;;;;;;;;;;;16.40;71.83;101892.50;5034245;28;20026;-54
2022/10/27 09:05:38;;;;;;;3.55;1.95;;;;;;;16.53;71.68;101887.97;5047084;28;20424;-54
2022/10/27 09:08:12;;;;;;;5.90;1.95;;;;;;;16.61;70.31;101886.56;5054905;28;20029;-54
2022/10/27 09:10:43;;;;;;;2.95;1.88;;;;;;;16.66;70.10;101884.41;5054130;28;20025;-54
2022/10/27 09:13:28;;;;;;;6.95;1.98;;;;;;;16.76;70.80;101880.97;5054824;28;20045;-57
2022/10/27 09:15:58;;;;;;;4.93;1.50;;;;;;;16.82;69.02;101876.97;5053315;28;20037;-54
2022/10/27 09:18:29;;;;;;;3.25;2.00;;;;;;;16.91;69.87;101883.50;5053388;28;20056;-54
2022/10/27 09:20:56;;;;;;;4.38;1.95;;;;;;;16.98;70.16;101891.00;5054400;28;20029;-54
2022/10/27 09:23:52;;;;;;;3.90;2.00;;;;;;;17.04;69.44;101895.09;5054786;28;20029;-54
2022/10/27 09:26:22;;;;;;;4.63;1.60;;;;;;;17.06;69.88;101893.16;5027528;28;20041;-54
2022/10/27 09:28:53;;;;;;;4.07;1.60;;;;;;;17.12;68.69;101878.38;5033335;28;20029;-54
2022/10/27 09:32:08;;;;;;;3.35;1.70;;;;;;;17.17;69.69;101878.91;5034680;28;20037;-54
2022/10/27 09:34:50;;;;;;;5.22;2.05;;;;;;;17.23;69.35;101875.75;5030844;28;20037;-54
2022/10/27 09:37:18;;;;;;;5.32;2.10;;;;;;;17.28;68.15;101875.41;5036044;28;20029;-54
2022/10/27 09:39:51;;;;;;;3.80;2.17;;;;;;;17.29;69.00;101877.13;5053547;28;20029;-54
2022/10/27 09:42:18;;;;;;;3.35;1.90;;;;;;;17.38;68.66;101871.03;5054441;28;20036;-54
2022/10/27 09:44:53;;;;;;;7.07;1.90;;;;;;;17.43;67.68;101861.66;5046240;28;20100;-55
2022/10/27 09:47:25;;;;;;;8.95;2.20;;;;;;;17.46;68.32;101853.34;5034085;28;20041;-54
2022/10/27 09:49:54;;;;;;;4.60;1.88;;;;;;;17.55;68.07;101856.31;5033854;28;20025;-54
2022/10/27 09:52:29;;;;;;;3.65;1.83;;;;;;;17.74;67.33;101859.31;5034248;28;20029;-54
2022/10/27 09:54:56;;;;;;;4.72;1.95;;;;;;;17.97;67.19;101856.69;5034995;28;20022;-54
2022/10/27 09:57:27;;;;;;;2.75;1.77;;;;;;;18.11;66.97;101865.41;5044335;28;20048;-54
2022/10/27 10:00:20;;;;;;;7.55;2.05;;;;;;;18.27;66.89;101867.75;5050823;28;20024;-54
2022/10/27 10:03:18;;;;;;;6.25;2.08;;;;;;;18.48;66.24;101869.72;5050802;28;20037;-54
2022/10/27 10:05:46;;;;;;;3.85;1.95;;;;;;;18.70;64.67;101866.13;5047385;28;20021;-54
2022/10/27 10:08:20;;;;;;;6.15;1.65;;;;;;;18.87;65.06;101867.50;5039805;28;20427;-54
2022/10/27 10:10:57;;;;;;;4.75;1.70;;;;;;;19.06;64.92;101849.69;5036457;28;20476;-54
2022/10/27 10:13:24;;;;;;;4.80;1.50;;;;;;;19.29;63.87;101846.88;5040326;28;20048;-54
2022/10/27 10:16:11;;;;;;;3.92;2.00;;;;;;;19.43;63.03;101843.88;5048574;28;20017;-55
2022/10/27 10:18:45;;;;;;;7.60;2.13;;;;;;;19.60;62.61;101839.75;5046149;28;20036;-54
2022/10/27 10:21:12;;;;;;;7.53;1.85;;;;;;;19.54;60.55;101842.97;5050943;28;20030;-54
2022/10/27 10:23:50;;;;;;;5.78;1.90;;;;;;;19.50;62.21;101850.47;5052959;28;20029;-54
2022/10/27 10:26:29;;;;;;;3.88;1.70;;;;;;;19.52;62.06;101848.50;5052257;28;20017;-55
2022/10/27 10:29:04;;;;;;;4.75;2.13;;;;;;;19.44;60.94;101845.59;5038309;28;20035;-54
2022/10/27 10:31:30;;;;;;;5.18;1.85;;;;;;;19.42;61.93;101854.81;5037167;28;20052;-55
2022/10/27 10:34:09;;;;;;;4.97;1.75;;;;;;;19.37;61.93;101844.41;5039256;28;20037;-54
2022/10/27 10:36:39;;;;;;;6.72;1.70;;;;;;;19.43;61.58;101851.13;5041028;28;20472;-54
2022/10/27 10:39:24;;;;;;;5.40;1.60;;;;;;;19.55;62.33;101843.81;5049531;28;20048;-54
2022/10/27 10:42:13;;;;;;;5.75;1.77;;;;;;;19.64;61.79;101821.44;5040854;28;20443;-55
2022/10/27 10:44:39;;;;;;;9.18;2.00;;;;;;;19.58;61.00;101814.72;5033880;28;20104;-55
2022/10/27 10:47:18;;;;;;;5.18;2.33;;;;;;;19.64;61.29;101824.16;5041491;28;20116;-55
2022/10/27 10:49:50;;;;;;;6.57;1.88;;;;;;;19.73;61.06;101815.28;5036533;28;20492;-55
2022/10/27 10:52:19;;;;;;;3.25;1.65;;;;;;;19.93;61.01;101827.91;5035286;28;20037;-55
2022/10/27 10:54:45;;;;;;;4.47;1.75;;;;;;;19.96;61.33;101822.22;5040686;28;20028;-55
2022/10/27 10:57:32;;;;;;;5.72;1.98;;;;;;;19.91;61.35;101818.22;5038819;28;20033;-55
2022/10/27 11:00:01;;;;;;;5.20;1.70;;;;;;;19.80;60.80;101821.03;5033500;28;20447;-55
2022/10/27 11:02:32;;;;;;;4.00;1.90;;;;;;;19.70;61.54;101816.41;5053812;28;20111;-55
2022/10/27 11:05:37;;;;;;;5.25;1.60;;;;;;;19.64;62.03;101816.91;5035135;28;20491;-54
2022/10/27 11:08:19;;;;;;;6.05;2.17;;;;;;;19.63;62.26;101826.00;5044603;28;20455;-54
2022/10/27 11:10:46;;;;;;;5.88;2.22;;;;;;;19.65;61.37;101825.91;5049717;28;20029;-54
2022/10/27 11:13:20;;;;;;;4.43;1.98;;;;;;;19.67;61.63;101824.75;5045847;28;20041;-54
2022/10/27 11:15:53;;;;;;;9.15;1.90;;;;;;;19.59;62.12;101824.56;5048522;28;20391;-55
2022/10/27 11:18:26;;;;;;;9.38;2.22;;;;;;;19.56;62.37;101813.13;5052175;28;20118;-55
2022/10/27 11:20:57;;;;;;;4.03;1.77;;;;;;;19.47;62.88;101812.09;5044281;28;20025;-55
2022/10/27 11:23:27;;;;;;;6.88;2.05;;;;;;;19.34;62.92;101798.78;5045260;28;20052;-55
2022/10/27 11:25:56;;;;;;;4.40;1.80;;;;;;;19.34;64.11;101812.28;5039820;28;20036;-54
2022/10/27 11:28:25;;;;;;;5.53;2.20;;;;;;;19.28;63.67;101818.19;5037778;28;20471;-54
2022/10/27 11:31:06;;;;;;;5.20;2.10;;;;;;;19.32;64.10;101813.41;5043696;28;20037;-54
2022/10/27 11:33:55;;;;;;;5.68;2.03;;;;;;;19.74;64.09;101811.63;5050944;28;20459;-54